Terminal Aerodrome Forecast
Issued by NWS Albany, NY

Home | Current Version | Previous Version | Text Only | Print | Product List | Glossary On
Versions: 1 2 3 4 5 6 7 8 9 10 11 12 13 14 15 16 17 18 19 20 21 22
380
FTUS41 KALY 211729 CCA
TAFPOU
TAF COR
KPOU 211729Z 2118/2218 22010KT P6SM SCT080
     FM212000 23008KT P6SM BKN080
     FM212300 29007KT P6SM VCSH BKN045
     FM220200 34007KT P6SM BKN045 PROB30 2210/2211 4SM -RA OVC040
     FM221100 02006KT P6SM OVC070 PROB30 2211/2215 4SM -RA OVC040
     FM221500 02006KT 2SM -RASN OVC070
     FM221600 02006KT 6SM -RASN OVC060=

USA.gov is the U.S. government's official web portal to all federal, state and local government web resources and services.